Time;durP1;ratioP1;P1;durP2;ratioP2;P2;SDS_P1;SDS_P2;PMS_P1;PMS_P2;Temp;Humidity;BMP_temperature;BMP_pressure;BME280_temperature;BME280_humidity;BME280_pressure;Samples;Min_cycle;Max_cycle;Signal;HPM_P1;HPM_P2
2021/12/17 00:03:05;;;;;;;24.43;12.93;;;6.40;46.60;;;;;;6238309;28;20315;-59
2021/12/17 00:06:05;;;;;;;25.00;13.77;;;6.50;46.90;;;;;;6231343;28;20850;-60
2021/12/17 00:09:08;;;;;;;22.43;14.20;;;6.30;48.10;;;;;;6234831;28;20235;-60
2021/12/17 00:12:13;;;;;;;24.47;14.77;;;6.50;48.70;;;;;;6238937;28;20293;-60
2021/12/17 00:15:16;;;;;;;31.73;14.77;;;6.40;48.40;;;;;;6229976;28;20314;-58
2021/12/17 00:18:25;;;;;;;26.43;14.00;;;6.40;47.90;;;;;;6234028;28;20488;-59
2021/12/17 00:48:36;;;;;;;31.17;14.37;;;6.20;45.80;;;;;;6218655;28;20316;-59
2021/12/17 00:55:05;;;;;;;23.40;13.30;;;6.30;46.30;;;;;;6235933;28;20360;-59
2021/12/17 00:58:08;;;;;;;23.40;13.20;;;6.40;46.00;;;;;;6237838;28;20305;-59
2021/12/17 01:01:11;;;;;;;23.67;13.13;;;6.10;46.60;;;;;;6237318;28;20238;-59
2021/12/17 01:04:14;;;;;;;20.53;13.07;;;6.20;46.70;;;;;;6237848;28;20317;-61
2021/12/17 01:07:19;;;;;;;22.67;11.67;;;6.30;47.00;;;;;;6220811;28;20237;-58
2021/12/17 01:10:31;;;;;;;24.80;12.90;;;6.40;46.60;;;;;;6227994;28;20236;-58
2021/12/17 01:13:35;;;;;;;27.90;13.60;;;6.20;45.80;;;;;;6229592;28;20230;-59
2021/12/17 01:16:38;;;;;;;24.53;13.03;;;6.20;45.90;;;;;;6232311;28;20242;-60
2021/12/17 01:20:10;;;;;;;26.23;12.63;;;6.10;46.70;;;;;;6237605;28;20239;-60
2021/12/17 01:23:29;;;;;;;21.93;12.33;;;6.20;47.60;;;;;;6227068;28;20332;-60
2021/12/17 01:36:36;;;;;;;24.60;12.30;;;6.20;45.90;;;;;;6235065;28;20389;-59
2021/12/17 01:40:44;;;;;;;26.63;11.20;;;6.20;46.00;;;;;;6228945;28;20280;-59
2021/12/17 01:43:36;;;;;;;20.43;11.93;;;6.40;44.80;;;;;;6224229;28;20636;-59
2021/12/17 01:46:39;;;;;;;19.23;11.23;;;6.30;44.80;;;;;;6216412;28;20823;-62
2021/12/17 01:56:53;;;;;;;25.23;11.87;;;6.30;45.20;;;;;;6216945;28;20474;-59
2021/12/17 02:00:02;;;;;;;27.57;11.13;;;6.10;45.40;;;;;;6229971;28;20243;-56
2021/12/17 02:03:06;;;;;;;27.77;11.50;;;6.40;46.00;;;;;;6225417;28;20312;-58
2021/12/17 02:06:09;;;;;;;20.80;10.80;;;6.20;45.50;;;;;;6220120;28;20235;-58
2021/12/17 02:09:38;;;;;;;24.57;11.77;;;6.10;46.20;;;;;;6222089;28;20401;-59
2021/12/17 02:12:55;;;;;;;22.50;11.33;;;6.20;45.90;;;;;;6235703;28;20258;-59
2021/12/17 02:23:19;;;;;;;23.43;11.40;;;6.10;46.00;;;;;;6220659;28;20370;-58
2021/12/17 02:30:02;;;;;;;24.57;10.77;;;6.30;45.40;;;;;;6212322;28;20726;-59
2021/12/17 02:33:05;;;;;;;28.67;11.30;;;6.10;45.30;;;;;;6232306;28;20239;-59
2021/12/17 02:36:08;;;;;;;19.63;10.10;;;6.20;45.00;;;;;;6235905;28;20266;-59
2021/12/17 02:39:37;;;;;;;23.73;10.70;;;6.10;44.90;;;;;;6237708;28;20234;-58
2021/12/17 02:45:55;;;;;;;20.20;10.67;;;6.20;44.70;;;;;;6206786;28;20269;-60
2021/12/17 02:48:58;;;;;;;19.73;10.67;;;6.20;44.00;;;;;;6232690;28;20235;-59
2021/12/17 02:52:05;;;;;;;17.37;9.63;;;6.20;44.70;;;;;;6229719;28;20581;-60
2021/12/17 02:55:09;;;;;;;21.63;10.60;;;6.30;44.70;;;;;;6210705;28;20224;-60
2021/12/17 02:58:12;;;;;;;22.97;11.03;;;6.10;44.10;;;;;;6206575;28;20484;-59
2021/12/17 03:01:16;;;;;;;16.43;10.10;;;6.10;44.70;;;;;;6204131;28;20378;-59
2021/12/17 03:04:20;;;;;;;26.93;9.83;;;6.10;44.40;;;;;;6240097;28;20270;-60
2021/12/17 03:07:23;;;;;;;22.63;10.03;;;6.30;44.30;;;;;;6228599;28;20341;-60
2021/12/17 03:10:27;;;;;;;20.10;10.60;;;6.10;44.20;;;;;;6238979;28;20719;-59
2021/12/17 03:13:33;;;;;;;18.87;9.83;;;6.30;44.00;;;;;;6239677;28;20737;-59
2021/12/17 03:16:41;;;;;;;22.37;10.63;;;6.10;43.30;;;;;;6237787;28;20393;-59
2021/12/17 03:26:24;;;;;;;20.63;10.87;;;6.20;43.20;;;;;;6238292;28;20239;-60
2021/12/17 03:29:27;;;;;;;20.23;10.03;;;6.10;42.90;;;;;;6226410;28;20235;-59
2021/12/17 03:32:30;;;;;;;19.43;10.97;;;6.10;43.00;;;;;;6216723;28;20266;-58
2021/12/17 03:35:32;;;;;;;22.47;10.67;;;6.20;43.30;;;;;;6230850;28;20242;-58
2021/12/17 03:38:35;;;;;;;26.07;11.57;;;5.90;43.10;;;;;;6236910;28;20737;-55
2021/12/17 03:41:46;;;;;;;21.10;10.33;;;6.20;44.60;;;;;;6235093;28;20238;-56
2021/12/17 03:44:48;;;;;;;21.93;10.57;;;6.10;43.60;;;;;;6239651;28;20270;-58
2021/12/17 03:47:51;;;;;;;17.93;10.57;;;6.10;42.70;;;;;;6234491;28;20238;-58
2021/12/17 03:50:54;;;;;;;17.37;10.13;;;6.20;43.50;;;;;;6238174;28;20754;-58
2021/12/17 03:54:00;;;;;;;20.53;11.23;;;6.00;42.90;;;;;;6236611;28;20232;-58
2021/12/17 03:57:08;;;;;;;20.73;11.20;;;6.00;43.60;;;;;;6237895;28;20313;-57
2021/12/17 04:00:12;;;;;;;29.03;11.73;;;6.10;43.70;;;;;;6237989;28;20366;-57
2021/12/17 04:03:15;;;;;;;24.23;11.17;;;6.00;43.70;;;;;;6236441;28;20299;-60
2021/12/17 04:06:18;;;;;;;25.87;11.13;;;6.20;43.30;;;;;;6237455;28;20318;-58
2021/12/17 04:09:22;;;;;;;23.50;10.13;;;6.10;42.90;;;;;;6237925;28;20702;-58
2021/12/17 04:12:39;;;;;;;21.70;10.93;;;6.10;43.30;;;;;;6232339;28;20326;-59
2021/12/17 04:15:44;;;;;;;27.90;11.20;;;6.10;44.20;;;;;;6231418;28;20313;-59
2021/12/17 04:18:46;;;;;;;26.27;11.40;;;6.00;43.20;;;;;;6237270;28;20698;-59
2021/12/17 04:21:49;;;;;;;23.10;11.70;;;6.20;42.90;;;;;;6229842;28;20243;-58
2021/12/17 04:24:52;;;;;;;27.23;11.43;;;6.00;43.40;;;;;;6237057;28;20239;-57
2021/12/17 04:27:56;;;;;;;18.03;11.77;;;6.10;43.90;;;;;;6236408;28;20257;-59
2021/12/17 04:30:58;;;;;;;22.47;11.37;;;6.20;43.70;;;;;;6240887;28;20309;-58
2021/12/17 04:34:01;;;;;;;17.83;11.47;;;6.00;43.20;;;;;;6220958;28;20322;-59
2021/12/17 04:37:04;;;;;;;25.30;11.73;;;6.10;43.20;;;;;;6234797;28;20840;-60
2021/12/17 04:40:11;;;;;;;26.27;11.87;;;6.00;44.30;;;;;;6241639;28;20253;-59
2021/12/17 04:43:21;;;;;;;26.13;11.90;;;6.20;43.50;;;;;;6240596;28;20304;-59
2021/12/17 04:46:31;;;;;;;25.03;12.03;;;6.20;43.20;;;;;;6223634;28;20871;-61
2021/12/17 04:59:36;;;;;;;19.80;11.50;;;6.00;43.90;;;;;;6234415;28;20233;-58
2021/12/17 05:02:42;;;;;;;23.43;12.10;;;5.80;42.70;;;;;;6231563;28;20243;-60
2021/12/17 05:05:46;;;;;;;26.90;11.77;;;6.20;41.80;;;;;;6237167;28;20242;-58
2021/12/17 05:08:55;;;;;;;21.87;12.20;;;6.10;41.80;;;;;;6228891;28;20384;-61
2021/12/17 05:18:48;;;;;;;25.93;12.40;;;6.20;41.20;;;;;;6229663;28;20258;-59
2021/12/17 05:21:50;;;;;;;24.27;10.90;;;6.30;41.60;;;;;;6233114;28;20293;-60
2021/12/17 05:24:53;;;;;;;22.80;10.77;;;6.10;41.00;;;;;;6237157;28;20266;-58
2021/12/17 05:28:00;;;;;;;18.97;10.50;;;6.10;40.90;;;;;;6238437;28;20311;-58
2021/12/17 05:31:05;;;;;;;29.77;12.00;;;6.00;39.80;;;;;;6233954;28;20253;-58
2021/12/17 05:34:08;;;;;;;21.93;11.33;;;6.00;39.30;;;;;;6227413;28;20261;-60
2021/12/17 05:37:11;;;;;;;22.00;13.17;;;6.20;40.40;;;;;;6235485;28;20239;-58
2021/12/17 05:40:14;;;;;;;30.20;12.60;;;6.10;41.00;;;;;;6231131;28;20741;-59
2021/12/17 05:43:17;;;;;;;22.60;11.87;;;6.10;40.90;;;;;;6231899;28;20237;-59
2021/12/17 05:46:36;;;;;;;21.60;11.80;;;5.90;40.90;;;;;;6233975;28;20269;-59
2021/12/17 05:49:38;;;;;;;18.10;11.63;;;5.90;40.90;;;;;;6230342;28;20230;-59
2021/12/17 05:52:41;;;;;;;21.60;11.43;;;6.00;41.70;;;;;;6230837;28;20717;-60
2021/12/17 05:55:44;;;;;;;22.77;11.40;;;6.10;42.30;;;;;;6232585;28;20270;-58
2021/12/17 05:58:47;;;;;;;22.33;11.03;;;5.90;42.00;;;;;;6227972;28;20622;-59
2021/12/17 06:01:51;;;;;;;27.40;11.93;;;5.90;42.20;;;;;;6232649;28;20266;-59
2021/12/17 06:04:53;;;;;;;18.80;11.00;;;5.90;43.10;;;;;;6238354;28;20852;-59
2021/12/17 06:07:57;;;;;;;23.77;11.10;;;6.00;43.20;;;;;;6233754;28;20287;-59
2021/12/17 06:10:59;;;;;;;26.17;11.60;;;5.90;42.20;;;;;;6234136;28;20296;-59
2021/12/17 06:14:03;;;;;;;23.47;10.80;;;5.90;41.50;;;;;;6241045;28;20266;-59
2021/12/17 06:17:08;;;;;;;22.57;11.07;;;5.80;42.90;;;;;;6241418;28;20234;-58
2021/12/17 06:20:13;;;;;;;19.60;10.87;;;5.90;43.30;;;;;;6238956;28;20477;-60
2021/12/17 06:23:15;;;;;;;25.30;11.43;;;5.70;43.40;;;;;;6234068;28;20284;-59
2021/12/17 06:26:18;;;;;;;24.20;11.23;;;6.00;44.50;;;;;;6237888;28;20336;-60
2021/12/17 06:29:21;;;;;;;16.67;10.93;;;5.60;44.70;;;;;;6236710;28;20262;-59
2021/12/17 06:32:25;;;;;;;18.93;11.50;;;6.00;44.80;;;;;;6236713;28;20326;-59
2021/12/17 06:35:28;;;;;;;22.97;11.13;;;6.00;45.20;;;;;;6236307;28;20859;-59
2021/12/17 06:38:31;;;;;;;19.97;10.40;;;5.70;45.40;;;;;;6239001;28;20236;-59
2021/12/17 06:41:34;;;;;;;30.07;11.70;;;5.60;45.70;;;;;;6242392;28;20384;-57
2021/12/17 06:44:37;;;;;;;24.17;10.17;;;5.50;46.40;;;;;;6238006;28;20234;-59
2021/12/17 06:47:41;;;;;;;21.20;10.60;;;5.80;45.60;;;;;;6232005;28;20329;-59
2021/12/17 07:01:04;;;;;;;15.43;9.13;;;5.70;43.50;;;;;;6233262;28;20447;-59
2021/12/17 07:11:13;;;;;;;16.93;9.43;;;5.90;42.40;;;;;;6238898;28;20222;-59
2021/12/17 07:17:43;;;;;;;19.50;9.07;;;5.70;43.40;;;;;;6210847;28;20322;-58
2021/12/17 07:21:05;;;;;;;16.93;9.17;;;5.60;43.80;;;;;;6230908;28;20932;-58
2021/12/17 07:34:07;;;;;;;19.37;10.57;;;5.80;41.50;;;;;;6235031;28;20314;-63
2021/12/17 07:40:33;;;;;;;15.77;9.60;;;6.00;43.90;;;;;;6232414;28;20256;-60
2021/12/17 07:43:51;;;;;;;23.13;10.63;;;5.80;42.90;;;;;;6229334;28;20243;-61
2021/12/17 07:46:54;;;;;;;16.07;10.10;;;5.80;42.80;;;;;;6231347;28;20235;-60
2021/12/17 07:49:57;;;;;;;23.17;9.90;;;5.90;43.20;;;;;;6231575;28;20233;-61
2021/12/17 07:53:01;;;;;;;16.90;9.47;;;6.00;41.00;;;;;;6214591;28;20259;-59
2021/12/17 07:56:06;;;;;;;18.77;9.63;;;6.00;41.50;;;;;;6231305;28;20313;-59
2021/12/17 07:59:11;;;;;;;19.33;9.57;;;5.70;40.70;;;;;;6239278;28;20309;-59
2021/12/17 08:02:14;;;;;;;23.90;9.27;;;5.90;41.70;;;;;;6235290;28;20234;-60
2021/12/17 08:05:17;;;;;;;14.97;9.37;;;6.00;40.90;;;;;;6237184;28;20242;-60
2021/12/17 08:08:22;;;;;;;15.97;8.93;;;5.90;40.80;;;;;;6234842;28;20269;-61
2021/12/17 08:11:24;;;;;;;18.07;9.27;;;5.90;41.00;;;;;;6235713;28;20241;-61
2021/12/17 08:14:29;;;;;;;13.83;8.70;;;5.90;40.50;;;;;;6237936;28;20322;-61
2021/12/17 08:17:49;;;;;;;20.43;10.60;;;5.80;40.70;;;;;;6233667;28;20239;-60
2021/12/17 08:24:45;;;;;;;10.60;8.23;;;5.50;40.60;;;;;;6232188;28;20246;-61
2021/12/17 08:28:01;;;;;;;18.50;9.77;;;6.00;39.00;;;;;;6234361;28;20317;-60
2021/12/17 08:31:03;;;;;;;14.70;8.17;;;6.00;40.60;;;;;;6228203;28;20227;-62
2021/12/17 08:34:06;;;;;;;20.83;8.83;;;6.20;41.20;;;;;;6228538;28;20528;-60
2021/12/17 08:37:10;;;;;;;19.80;9.07;;;6.00;40.00;;;;;;6240626;28;20336;-61
2021/12/17 08:40:14;;;;;;;15.97;8.40;;;6.40;39.00;;;;;;6226271;28;20230;-60
2021/12/17 08:43:17;;;;;;;20.53;9.90;;;6.20;38.40;;;;;;6227310;28;20579;-60
2021/12/17 08:46:19;;;;;;;18.53;8.57;;;6.20;37.80;;;;;;6229406;28;20730;-60
2021/12/17 08:49:22;;;;;;;17.27;9.27;;;6.30;38.30;;;;;;6224689;28;20248;-61
2021/12/17 08:52:26;;;;;;;14.57;8.30;;;6.10;39.10;;;;;;6232042;28;20324;-60
2021/12/17 08:55:31;;;;;;;10.17;7.97;;;6.20;39.40;;;;;;6228811;28;20234;-60
2021/12/17 08:58:35;;;;;;;15.93;9.17;;;6.20;38.10;;;;;;6233045;28;20262;-60
2021/12/17 09:01:37;;;;;;;15.30;8.23;;;6.40;37.30;;;;;;6235044;28;22558;-60
2021/12/17 09:04:40;;;;;;;18.33;8.80;;;6.10;38.00;;;;;;6234987;28;20243;-60
2021/12/17 09:07:43;;;;;;;15.37;7.90;;;6.20;37.50;;;;;;6234823;28;20317;-61
2021/12/17 09:10:48;;;;;;;16.27;8.03;;;6.20;37.10;;;;;;6238741;28;20234;-61
2021/12/17 09:13:51;;;;;;;18.37;8.93;;;6.20;37.40;;;;;;6241219;28;20238;-60
2021/12/17 09:16:55;;;;;;;21.37;8.73;;;6.40;37.90;;;;;;6226415;28;20742;-58
2021/12/17 09:19:58;;;;;;;25.87;9.03;;;6.20;37.80;;;;;;6218651;28;20241;-61
2021/12/17 09:23:01;;;;;;;13.37;7.97;;;6.30;37.90;;;;;;6219023;28;20245;-63
2021/12/17 09:26:05;;;;;;;22.40;9.53;;;6.30;36.20;;;;;;6229599;28;20231;-60
2021/12/17 09:29:08;;;;;;;16.57;7.80;;;6.30;36.30;;;;;;6226196;28;20228;-61
2021/12/17 09:32:10;;;;;;;13.93;7.77;;;6.50;37.20;;;;;;6230318;28;20366;-61
2021/12/17 09:35:13;;;;;;;17.83;8.20;;;6.30;32.80;;;;;;6221916;28;20241;-60
2021/12/17 09:38:16;;;;;;;10.77;7.23;;;6.40;33.20;;;;;;6233136;28;20374;-61
2021/12/17 09:41:22;;;;;;;16.13;7.53;;;6.30;31.60;;;;;;6224251;28;20718;-59
2021/12/17 09:44:25;;;;;;;8.50;7.67;;;6.30;32.00;;;;;;6229300;28;20326;-60
2021/12/17 09:47:27;;;;;;;12.20;7.47;;;6.40;31.70;;;;;;6235271;28;20238;-59
2021/12/17 09:50:31;;;;;;;16.20;7.83;;;6.70;30.90;;;;;;6241556;28;20241;-59
2021/12/17 09:53:34;;;;;;;15.60;7.57;;;6.40;30.80;;;;;;6236333;28;20254;-58
2021/12/17 09:56:39;;;;;;;12.90;7.63;;;6.40;31.30;;;;;;6237963;28;20819;-59
2021/12/17 09:59:41;;;;;;;14.40;7.03;;;6.40;31.70;;;;;;6238403;28;20540;-59
2021/12/17 10:02:45;;;;;;;14.73;7.43;;;6.50;31.80;;;;;;6239029;28;20364;-59
2021/12/17 10:05:48;;;;;;;17.13;6.87;;;6.60;31.00;;;;;;6239932;28;20239;-59
2021/12/17 10:08:51;;;;;;;8.47;6.37;;;6.60;30.80;;;;;;6237541;28;20585;-59
2021/12/17 10:12:04;;;;;;;10.60;7.30;;;6.70;31.60;;;;;;6234880;28;20641;-61
2021/12/17 10:15:09;;;;;;;13.27;7.37;;;6.60;30.80;;;;;;6238043;28;20368;-59
2021/12/17 10:18:12;;;;;;;10.97;6.97;;;6.50;30.20;;;;;;6231912;28;20290;-58
2021/12/17 10:21:19;;;;;;;12.90;6.53;;;6.60;29.80;;;;;;6236125;28;20234;-59
2021/12/17 10:24:23;;;;;;;11.17;7.10;;;6.60;28.80;;;;;;6237022;28;20325;-59
2021/12/17 10:27:30;;;;;;;11.73;6.60;;;6.60;28.20;;;;;;6236420;28;20732;-60
2021/12/17 10:30:36;;;;;;;10.27;6.70;;;6.70;28.30;;;;;;6239085;28;20230;-61
2021/12/17 10:33:38;;;;;;;10.47;6.60;;;6.60;28.60;;;;;;6229423;28;20717;-62
2021/12/17 10:36:44;;;;;;;10.10;6.93;;;6.60;29.60;;;;;;6242985;28;20241;-62
2021/12/17 10:39:48;;;;;;;10.90;7.00;;;6.60;28.90;;;;;;6245007;28;20837;-62
2021/12/17 10:42:59;;;;;;;19.00;7.90;;;6.60;30.20;;;;;;6235448;28;20271;-62
2021/12/17 10:46:08;;;;;;;14.27;7.87;;;6.60;32.20;;;;;;6228614;28;20318;-60
2021/12/17 10:49:17;;;;;;;12.17;7.30;;;6.80;31.80;;;;;;6232768;28;20230;-60
2021/12/17 10:52:28;;;;;;;11.00;6.70;;;6.70;30.00;;;;;;6233365;28;20728;-61
2021/12/17 10:55:30;;;;;;;11.00;6.30;;;6.70;27.80;;;;;;6244163;28;20745;-61
2021/12/17 10:58:34;;;;;;;9.90;7.00;;;6.90;27.00;;;;;;6247194;28;20310;-61
2021/12/17 11:01:44;;;;;;;11.03;7.73;;;6.70;26.30;;;;;;6235163;28;20234;-60
2021/12/17 11:04:51;;;;;;;9.73;6.17;;;6.70;25.50;;;;;;6234620;28;20377;-60
2021/12/17 11:07:54;;;;;;;10.33;6.87;;;7.00;26.40;;;;;;6234988;28;20250;-61
2021/12/17 11:11:05;;;;;;;13.53;7.27;;;6.80;25.50;;;;;;6233491;28;20312;-61
2021/12/17 11:14:09;;;;;;;8.30;6.17;;;6.70;26.10;;;;;;6237842;28;20280;-61
2021/12/17 11:17:13;;;;;;;9.17;6.30;;;6.70;25.70;;;;;;6237016;28;20313;-61
2021/12/17 11:20:38;;;;;;;8.83;5.97;;;6.80;25.20;;;;;;6220019;28;20230;-60
2021/12/17 11:23:41;;;;;;;10.23;6.43;;;6.80;22.90;;;;;;6237492;28;20240;-60
2021/12/17 11:26:45;;;;;;;12.43;6.07;;;6.80;22.90;;;;;;6241993;28;20324;-61
2021/12/17 11:29:49;;;;;;;12.83;6.67;;;6.80;23.40;;;;;;6227741;28;20265;-61
2021/12/17 11:32:55;;;;;;;10.00;5.73;;;6.80;21.10;;;;;;6234613;28;20381;-61
2021/12/17 11:35:58;;;;;;;12.23;6.93;;;6.70;19.70;;;;;;6228958;28;20254;-60
2021/12/17 11:39:09;;;;;;;8.67;6.30;;;7.10;21.00;;;;;;6240582;28;20254;-60
2021/12/17 11:42:28;;;;;;;10.20;6.30;;;6.70;19.70;;;;;;6233337;28;20227;-61
2021/12/17 11:45:34;;;;;;;12.63;7.17;;;6.90;20.20;;;;;;6239753;28;20360;-61
2021/12/17 11:48:37;;;;;;;11.10;6.20;;;6.80;21.00;;;;;;6238526;28;20238;-60
2021/12/17 11:51:40;;;;;;;10.07;6.20;;;6.90;19.00;;;;;;6229401;28;20280;-61
2021/12/17 11:54:43;;;;;;;9.67;5.50;;;6.90;18.30;;;;;;6233918;28;20238;-59
2021/12/17 11:57:46;;;;;;;9.63;6.00;;;6.90;19.40;;;;;;6239402;28;20305;-61
2021/12/17 12:00:52;;;;;;;6.80;5.90;;;6.90;19.60;;;;;;6238354;28;20234;-60
2021/12/17 12:04:53;;;;;;;15.80;7.17;;;6.90;19.60;;;;;;6216092;28;20245;-60
2021/12/17 12:08:27;;;;;;;10.83;5.90;;;6.90;19.70;;;;;;6157215;28;20244;-59
2021/12/17 12:11:30;;;;;;;8.90;5.97;;;6.90;18.50;;;;;;6163826;28;20236;-58
2021/12/17 12:14:36;;;;;;;11.07;5.80;;;7.00;17.80;;;;;;6242666;28;20238;-58
2021/12/17 12:18:17;;;;;;;10.50;6.93;;;6.90;17.30;;;;;;6236668;28;20748;-61
2021/12/17 12:21:21;;;;;;;11.43;6.10;;;6.90;16.90;;;;;;6210102;28;20228;-60
2021/12/17 12:24:24;;;;;;;12.33;6.30;;;7.00;16.60;;;;;;6241481;28;20601;-59
2021/12/17 12:27:30;;;;;;;9.90;6.10;;;6.90;16.30;;;;;;6237930;28;20313;-61
2021/12/17 12:30:37;;;;;;;13.90;6.33;;;6.90;14.90;;;;;;6229277;28;20241;-59
2021/12/17 12:34:10;;;;;;;8.57;5.80;;;7.10;16.40;;;;;;6231876;28;20414;-59
2021/12/17 12:37:32;;;;;;;10.57;6.50;;;6.90;17.50;;;;;;6230915;28;20246;-58
2021/12/17 12:40:43;;;;;;;7.47;5.33;;;6.90;16.20;;;;;;6236304;28;20934;-59
2021/12/17 12:43:48;;;;;;;8.47;5.87;;;6.90;15.30;;;;;;6242728;28;20360;-59
2021/12/17 12:46:53;;;;;;;9.87;6.10;;;6.90;15.70;;;;;;6235057;28;20246;-61
2021/12/17 12:50:07;;;;;;;9.93;5.87;;;7.00;16.30;;;;;;6225371;28;20231;-55
2021/12/17 12:53:11;;;;;;;11.77;6.23;;;6.90;13.50;;;;;;6233755;28;20223;-59
2021/12/17 12:56:19;;;;;;;10.07;6.20;;;7.00;14.60;;;;;;6234569;28;20294;-60
2021/12/17 12:59:22;;;;;;;7.07;6.00;;;7.00;14.70;;;;;;6237567;28;20242;-61
2021/12/17 13:02:27;;;;;;;14.00;6.53;;;7.00;13.80;;;;;;6234931;28;20241;-60
2021/12/17 13:05:33;;;;;;;9.80;5.90;;;6.80;15.20;;;;;;6230644;28;20238;-62
2021/12/17 13:08:36;;;;;;;13.50;6.30;;;7.00;14.30;;;;;;6241991;28;20253;-59
2021/12/17 13:11:45;;;;;;;16.20;7.10;;;7.00;14.90;;;;;;6233232;28;20235;-59
2021/12/17 13:14:48;;;;;;;11.93;5.93;;;6.90;14.40;;;;;;6214567;28;20742;-59
2021/12/17 13:21:36;;;;;;;15.63;6.70;;;7.00;13.50;;;;;;6228995;28;20339;-61
2021/12/17 13:24:39;;;;;;;12.40;6.10;;;7.20;11.60;;;;;;6229969;28;20391;-59
2021/12/17 13:27:52;;;;;;;8.87;5.63;;;7.10;12.40;;;;;;6233445;28;20329;-59
2021/12/17 13:30:56;;;;;;;12.97;5.87;;;7.10;11.70;;;;;;6200103;28;20825;-59
2021/12/17 13:33:59;;;;;;;12.23;6.43;;;7.10;12.40;;;;;;6223236;28;20308;-58
2021/12/17 13:37:07;;;;;;;9.40;5.97;;;7.00;13.00;;;;;;6233694;28;20289;-59
2021/12/17 13:40:13;;;;;;;14.17;6.67;;;7.40;13.10;;;;;;6237147;28;20235;-59
2021/12/17 13:43:27;;;;;;;11.43;6.20;;;7.40;12.60;;;;;;6233699;28;20277;-59
2021/12/17 13:46:29;;;;;;;14.80;6.17;;;7.10;12.40;;;;;;6232538;28;20240;-59
2021/12/17 13:49:32;;;;;;;7.30;5.27;;;7.10;13.10;;;;;;6233704;28;20624;-62
2021/12/17 13:52:39;;;;;;;9.03;5.90;;;7.10;13.10;;;;;;6229368;28;20312;-60
2021/12/17 13:55:44;;;;;;;7.07;5.40;;;7.00;12.00;;;;;;6196288;28;20732;-60
2021/12/17 13:58:47;;;;;;;14.30;5.97;;;7.10;13.10;;;;;;6231245;28;20249;-59
2021/12/17 14:01:50;;;;;;;10.73;5.90;;;7.10;12.40;;;;;;6224391;28;20288;-61
2021/12/17 14:05:03;;;;;;;9.03;5.83;;;7.10;11.30;;;;;;6235373;28;20385;-58
2021/12/17 14:08:11;;;;;;;9.93;5.20;;;7.00;12.30;;;;;;6229418;28;20383;-58
2021/12/17 14:11:20;;;;;;;8.60;5.50;;;7.00;13.10;;;;;;6232127;28;20247;-61
2021/12/17 14:14:43;;;;;;;9.20;5.90;;;6.90;13.40;;;;;;6228918;28;20645;-59
2021/12/17 14:17:47;;;;;;;11.20;5.70;;;7.00;14.90;;;;;;6226420;28;20665;-59
2021/12/17 14:20:53;;;;;;;8.53;5.80;;;7.00;13.20;;;;;;6227657;28;20249;-60
2021/12/17 14:23:58;;;;;;;15.30;6.27;;;6.90;13.10;;;;;;6226863;28;21468;-59
2021/12/17 14:27:01;;;;;;;7.20;5.97;;;7.00;11.80;;;;;;6242250;28;20329;-60
2021/12/17 14:30:05;;;;;;;7.83;6.07;;;7.00;13.00;;;;;;6230975;28;20318;-57
2021/12/17 14:33:10;;;;;;;7.90;6.10;;;7.00;11.60;;;;;;6220231;28;20597;-57
2021/12/17 14:36:15;;;;;;;11.43;5.93;;;7.10;11.30;;;;;;6226686;28;20251;-59
2021/12/17 14:39:23;;;;;;;11.57;5.40;;;7.00;12.30;;;;;;6227333;28;20286;-59
2021/12/17 14:42:32;;;;;;;8.23;6.20;;;7.00;12.60;;;;;;6226855;28;20364;-59
2021/12/17 14:45:42;;;;;;;6.97;5.90;;;7.00;11.80;;;;;;6236010;28;20235;-60
2021/12/17 14:48:57;;;;;;;7.73;6.00;;;6.90;12.20;;;;;;6234280;28;20781;-60
2021/12/17 15:05:43;;;;;;;11.87;6.10;;;7.00;14.70;;;;;;6213328;28;20613;-59
2021/12/17 15:08:46;;;;;;;10.03;5.97;;;6.80;16.20;;;;;;6234506;28;20374;-61
2021/12/17 15:11:58;;;;;;;6.87;6.13;;;7.00;16.20;;;;;;6224872;28;20259;-60
2021/12/17 15:15:01;;;;;;;9.53;5.63;;;6.80;14.80;;;;;;6229793;28;20720;-59
2021/12/17 15:18:05;;;;;;;9.47;5.20;;;6.80;12.20;;;;;;6225182;28;20329;-59
2021/12/17 15:21:08;;;;;;;8.40;5.63;;;6.80;12.20;;;;;;6231418;28;20331;-58
2021/12/17 15:24:11;;;;;;;15.13;5.97;;;6.70;10.80;;;;;;6239126;28;20250;-58
2021/12/17 15:27:15;;;;;;;7.07;5.50;;;6.80;9.90;;;;;;6233102;28;20238;-59
2021/12/17 15:30:20;;;;;;;7.27;5.00;;;6.90;10.50;;;;;;6238453;28;20260;-63
2021/12/17 15:33:24;;;;;;;13.73;5.77;;;6.70;11.10;;;;;;6236223;28;20385;-59
2021/12/17 15:36:26;;;;;;;6.07;5.53;;;7.00;11.80;;;;;;6237238;28;20320;-59
2021/12/17 15:39:29;;;;;;;6.17;5.53;;;6.70;11.60;;;;;;6230084;28;20361;-58
2021/12/17 15:42:33;;;;;;;6.37;5.60;;;6.70;11.10;;;;;;6237010;28;20740;-58
2021/12/17 15:45:38;;;;;;;7.80;5.10;;;6.70;12.10;;;;;;6237300;28;20274;-58
2021/12/17 15:48:41;;;;;;;6.40;5.50;;;6.70;11.40;;;;;;6237579;28;20678;-58
2021/12/17 15:51:44;;;;;;;8.47;5.37;;;6.60;12.00;;;;;;6238078;28;20238;-59
2021/12/17 15:54:46;;;;;;;5.87;5.27;;;6.70;12.10;;;;;;6231846;28;20337;-59
2021/12/17 15:57:53;;;;;;;9.13;5.13;;;6.80;13.00;;;;;;6241283;28;20242;-62
2021/12/17 16:00:56;;;;;;;6.57;5.00;;;6.70;13.00;;;;;;6235582;28;20242;-60
2021/12/17 16:03:59;;;;;;;9.70;5.73;;;6.70;13.90;;;;;;6234827;28;25636;-60
2021/12/17 16:07:05;;;;;;;6.37;5.57;;;6.70;14.90;;;;;;6236054;28;20334;-63
2021/12/17 16:11:08;;;;;;;7.37;5.67;;;6.90;13.80;;;;;;6238767;28;20235;-58
2021/12/17 16:21:03;;;;;;;8.03;5.73;;;6.70;13.80;;;;;;6234633;28;20292;-61
2021/12/17 16:24:06;;;;;;;13.10;6.43;;;6.70;12.60;;;;;;6232521;28;20604;-59
2021/12/17 16:27:09;;;;;;;8.67;5.63;;;6.70;12.90;;;;;;6233264;28;20284;-63
2021/12/17 16:30:14;;;;;;;9.83;6.40;;;6.70;13.40;;;;;;6234853;28;20819;-58
2021/12/17 16:33:17;;;;;;;6.73;5.90;;;6.60;14.10;;;;;;6234331;28;20227;-59
2021/12/17 16:36:19;;;;;;;7.33;6.00;;;6.60;14.90;;;;;;6233672;28;20239;-61
2021/12/17 16:39:22;;;;;;;8.57;5.80;;;6.80;13.60;;;;;;6235301;28;20240;-59
2021/12/17 16:42:25;;;;;;;11.87;6.40;;;6.70;14.00;;;;;;6227207;28;20322;-60
2021/12/17 16:45:34;;;;;;;11.57;6.63;;;6.70;13.40;;;;;;6234027;28;25729;-60
2021/12/17 16:48:39;;;;;;;8.20;5.80;;;6.70;13.20;;;;;;6237308;28;20327;-61
2021/12/17 16:51:42;;;;;;;10.37;5.97;;;6.70;13.90;;;;;;6201429;28;20232;-60
2021/12/17 16:54:45;;;;;;;9.33;5.93;;;6.70;13.90;;;;;;6204769;28;20373;-59
2021/12/17 16:57:48;;;;;;;6.60;5.97;;;6.70;14.00;;;;;;6229856;28;20612;-60
2021/12/17 17:00:52;;;;;;;12.17;5.97;;;6.70;14.50;;;;;;6238717;28;20320;-57
2021/12/17 17:03:56;;;;;;;6.63;5.73;;;6.70;13.50;;;;;;6230382;28;20238;-59
2021/12/17 17:07:02;;;;;;;10.97;5.77;;;6.80;14.30;;;;;;6231225;28;20235;-58
2021/12/17 17:10:05;;;;;;;6.20;5.60;;;6.90;14.40;;;;;;6228011;28;20231;-58
2021/12/17 17:13:08;;;;;;;10.57;5.83;;;6.80;16.00;;;;;;6222976;28;20960;-61
2021/12/17 17:16:13;;;;;;;7.03;5.40;;;6.70;13.50;;;;;;6241087;28;20237;-59
2021/12/17 17:19:15;;;;;;;6.70;6.03;;;6.70;13.70;;;;;;6226210;28;20231;-61
2021/12/17 17:22:18;;;;;;;11.07;6.37;;;6.60;13.20;;;;;;6229602;28;20294;-59
2021/12/17 17:25:21;;;;;;;7.50;5.80;;;6.50;14.10;;;;;;6232420;28;20233;-59
2021/12/17 17:28:24;;;;;;;9.13;6.23;;;6.60;13.90;;;;;;6227166;28;20458;-59
2021/12/17 17:31:29;;;;;;;10.40;6.87;;;6.60;13.70;;;;;;6235143;28;20315;-60
2021/12/17 17:34:32;;;;;;;7.97;6.67;;;6.60;13.50;;;;;;6228268;28;20267;-59
2021/12/17 17:37:35;;;;;;;8.77;5.90;;;6.80;13.10;;;;;;6235327;28;20676;-60
2021/12/17 17:40:38;;;;;;;6.30;5.30;;;6.60;12.60;;;;;;6230722;28;20317;-59
2021/12/17 17:43:40;;;;;;;9.40;6.50;;;6.60;13.70;;;;;;6239260;28;20324;-58
2021/12/17 17:46:45;;;;;;;10.00;7.40;;;6.50;12.00;;;;;;6234876;28;20241;-58
2021/12/17 17:49:50;;;;;;;13.13;6.73;;;6.40;11.90;;;;;;6231548;28;20265;-59
2021/12/17 17:52:52;;;;;;;7.70;6.00;;;6.40;12.70;;;;;;6229910;28;20270;-58
2021/12/17 17:55:55;;;;;;;8.17;5.73;;;6.50;13.30;;;;;;6228053;28;20281;-58
2021/12/17 17:58:58;;;;;;;7.70;6.53;;;6.50;14.10;;;;;;6233621;28;20230;-60
2021/12/17 18:02:02;;;;;;;10.23;6.50;;;6.40;15.50;;;;;;6232886;28;20222;-60
2021/12/17 18:05:09;;;;;;;8.13;6.73;;;6.70;16.10;;;;;;6213007;28;20370;-58
2021/12/17 18:08:14;;;;;;;7.63;6.90;;;6.60;17.30;;;;;;6221949;28;20250;-58
2021/12/17 18:11:17;;;;;;;11.30;7.23;;;6.50;16.70;;;;;;6230949;28;20309;-59
2021/12/17 18:14:20;;;;;;;8.97;6.40;;;6.80;17.10;;;;;;6223195;28;20920;-59
2021/12/17 18:17:24;;;;;;;8.03;7.00;;;6.50;17.70;;;;;;6219038;28;20239;-58
2021/12/17 18:20:27;;;;;;;11.63;7.00;;;6.70;18.80;;;;;;6219426;28;20329;-60
2021/12/17 18:23:30;;;;;;;7.93;7.10;;;6.60;19.80;;;;;;6226184;28;20239;-59
2021/12/17 18:26:33;;;;;;;7.67;6.80;;;6.80;19.10;;;;;;6229980;28;20293;-59
2021/12/17 18:29:36;;;;;;;11.23;8.30;;;6.60;19.40;;;;;;6219539;28;20241;-58
2021/12/17 18:32:41;;;;;;;11.00;7.80;;;6.60;20.00;;;;;;6230853;28;20230;-61
2021/12/17 18:35:44;;;;;;;8.47;6.80;;;6.60;20.00;;;;;;6220823;28;20326;-58